sensor_id;sensor_type;location;lat;lon;timestamp;pressure;altitude;pressure_sealevel;temperature;humidity
72370;BME280;60343;-32.030;115.880;2023-06-05T00:00:52;100267.38;;;14.19;97.12
72370;BME280;60343;-32.030;115.880;2023-06-05T00:03:29;100256.78;;;14.24;97.59
72370;BME280;60343;-32.030;115.880;2023-06-05T00:06:05;100248.50;;;14.32;98.03
72370;BME280;60343;-32.030;115.880;2023-06-05T00:08:48;100241.19;;;14.66;95.45
72370;BME280;60343;-32.030;115.880;2023-06-05T00:11:24;100226.03;;;14.71;94.58
72370;BME280;60343;-32.030;115.880;2023-06-05T00:14:00;100218.31;;;14.88;93.11
72370;BME280;60343;-32.030;115.880;2023-06-05T00:16:37;100218.53;;;14.80;91.96
72370;BME280;60343;-32.030;115.880;2023-06-05T00:19:13;100218.88;;;14.96;91.62
72370;BME280;60343;-32.030;115.880;2023-06-05T00:21:49;100209.13;;;15.02;91.52
72370;BME280;60343;-32.030;115.880;2023-06-05T00:24:32;100208.06;;;15.03;90.55
72370;BME280;60343;-32.030;115.880;2023-06-05T00:27:08;100199.38;;;14.94;90.94
72370;BME280;60343;-32.030;115.880;2023-06-05T00:29:44;100231.56;;;14.89;91.43
72370;BME280;60343;-32.030;115.880;2023-06-05T00:32:20;100269.34;;;14.76;92.08
72370;BME280;60343;-32.030;115.880;2023-06-05T00:34:57;100285.75;;;14.62;93.10
72370;BME280;60343;-32.030;115.880;2023-06-05T00:37:33;100267.56;;;14.50;94.19
72370;BME280;60343;-32.030;115.880;2023-06-05T00:40:16;100268.63;;;14.36;95.33
72370;BME280;60343;-32.030;115.880;2023-06-05T00:42:52;100258.25;;;14.33;95.75
72370;BME280;60343;-32.030;115.880;2023-06-05T00:45:28;100249.16;;;14.21;95.99
72370;BME280;60343;-32.030;115.880;2023-06-05T00:48:05;100253.28;;;14.24;95.96
72370;BME280;60343;-32.030;115.880;2023-06-05T00:50:42;100243.97;;;14.26;96.79
72370;BME280;60343;-32.030;115.880;2023-06-05T00:53:18;100225.34;;;14.38;95.46
72370;BME280;60343;-32.030;115.880;2023-06-05T00:56:01;100215.78;;;14.48;95.16
72370;BME280;60343;-32.030;115.880;2023-06-05T00:58:37;100211.38;;;14.60;94.46
72370;BME280;60343;-32.030;115.880;2023-06-05T01:01:14;100197.88;;;14.67;94.03
72370;BME280;60343;-32.030;115.880;2023-06-05T01:03:53;100187.50;;;14.64;94.19
72370;BME280;60343;-32.030;115.880;2023-06-05T01:06:30;100182.97;;;14.65;94.76
72370;BME280;60343;-32.030;115.880;2023-06-05T01:09:07;100163.31;;;14.95;94.80
72370;BME280;60343;-32.030;115.880;2023-06-05T01:11:56;100168.34;;;15.48;93.68
72370;BME280;60343;-32.030;115.880;2023-06-05T01:14:36;100158.16;;;15.50;93.44
72370;BME280;60343;-32.030;115.880;2023-06-05T01:17:14;100149.22;;;15.50;92.72
72370;BME280;60343;-32.030;115.880;2023-06-05T01:19:53;100156.44;;;15.62;90.90
72370;BME280;60343;-32.030;115.880;2023-06-05T01:22:37;100152.53;;;15.58;90.52
72370;BME280;60343;-32.030;115.880;2023-06-05T01:25:20;100135.59;;;15.69;90.76
72370;BME280;60343;-32.030;115.880;2023-06-05T01:28:01;100110.41;;;15.75;91.30
72370;BME280;60343;-32.030;115.880;2023-06-05T01:30:44;100123.41;;;15.85;91.08
72370;BME280;60343;-32.030;115.880;2023-06-05T01:33:28;100101.97;;;15.72;88.78
72370;BME280;60343;-32.030;115.880;2023-06-05T01:36:11;100082.25;;;15.46;89.81
72370;BME280;60343;-32.030;115.880;2023-06-05T01:38:50;100066.69;;;15.24;91.48
72370;BME280;60343;-32.030;115.880;2023-06-05T01:41:34;100106.41;;;15.10;91.91
72370;BME280;60343;-32.030;115.880;2023-06-05T01:44:11;100159.31;;;15.04;90.90
72370;BME280;60343;-32.030;115.880;2023-06-05T01:46:52;100169.34;;;14.97;91.53
72370;BME280;60343;-32.030;115.880;2023-06-05T01:49:45;100136.31;;;14.71;92.53
72370;BME280;60343;-32.030;115.880;2023-06-05T01:52:21;100147.09;;;14.64;93.08
72370;BME280;60343;-32.030;115.880;2023-06-05T01:54:58;100145.97;;;14.47;94.17
72370;BME280;60343;-32.030;115.880;2023-06-05T01:57:41;100147.19;;;14.51;95.29
72370;BME280;60343;-32.030;115.880;2023-06-05T02:00:17;100132.47;;;14.53;95.63
72370;BME280;60343;-32.030;115.880;2023-06-05T02:02:54;100124.75;;;14.64;94.92
72370;BME280;60343;-32.030;115.880;2023-06-05T02:05:30;100116.53;;;14.45;95.69
72370;BME280;60343;-32.030;115.880;2023-06-05T02:08:06;100100.19;;;14.40;96.77
72370;BME280;60343;-32.030;115.880;2023-06-05T02:10:45;100128.78;;;14.35;97.02
72370;BME280;60343;-32.030;115.880;2023-06-05T02:13:28;100137.88;;;14.34;97.61
72370;BME280;60343;-32.030;115.880;2023-06-05T02:16:04;100137.31;;;14.38;97.78
72370;BME280;60343;-32.030;115.880;2023-06-05T02:18:42;100097.94;;;14.31;98.55
72370;BME280;60343;-32.030;115.880;2023-06-05T02:21:18;100106.03;;;14.31;98.60
72370;BME280;60343;-32.030;115.880;2023-06-05T02:23:55;100130.25;;;14.37;98.94
72370;BME280;60343;-32.030;115.880;2023-06-05T02:26:31;100122.56;;;14.41;97.82
72370;BME280;60343;-32.030;115.880;2023-06-05T02:29:14;100133.16;;;14.29;97.61
72370;BME280;60343;-32.030;115.880;2023-06-05T02:31:50;100122.19;;;14.24;98.45
72370;BME280;60343;-32.030;115.880;2023-06-05T02:34:27;100122.81;;;14.33;98.38
72370;BME280;60343;-32.030;115.880;2023-06-05T02:37:06;100144.56;;;14.38;99.02
72370;BME280;60343;-32.030;115.880;2023-06-05T02:39:42;100130.22;;;14.44;98.77
72370;BME280;60343;-32.030;115.880;2023-06-05T02:42:18;100116.75;;;14.44;99.71
72370;BME280;60343;-32.030;115.880;2023-06-05T02:45:01;100126.50;;;14.45;100.00
72370;BME280;60343;-32.030;115.880;2023-06-05T02:47:37;100143.44;;;14.58;98.38
72370;BME280;60343;-32.030;115.880;2023-06-05T02:50:14;100134.91;;;14.62;98.50
72370;BME280;60343;-32.030;115.880;2023-06-05T02:52:50;100132.38;;;14.73;97.00
72370;BME280;60343;-32.030;115.880;2023-06-05T02:55:26;100115.09;;;14.81;96.25
72370;BME280;60343;-32.030;115.880;2023-06-05T02:58:03;100111.88;;;15.03;94.63
72370;BME280;60343;-32.030;115.880;2023-06-05T03:00:47;100097.00;;;15.19;94.38
72370;BME280;60343;-32.030;115.880;2023-06-05T03:03:25;100102.00;;;15.40;94.12
72370;BME280;60343;-32.030;115.880;2023-06-05T03:06:02;100105.47;;;15.48;93.80
72370;BME280;60343;-32.030;115.880;2023-06-05T03:08:40;100104.03;;;15.45;90.55
72370;BME280;60343;-32.030;115.880;2023-06-05T03:11:16;100096.91;;;15.32;90.70
72370;BME280;60343;-32.030;115.880;2023-06-05T03:13:53;100104.53;;;15.35;91.25
72370;BME280;60343;-32.030;115.880;2023-06-05T03:16:36;100100.75;;;15.43;87.61
72370;BME280;60343;-32.030;115.880;2023-06-05T03:19:14;100093.75;;;15.35;88.86
72370;BME280;60343;-32.030;115.880;2023-06-05T03:21:50;100085.81;;;15.40;87.96
72370;BME280;60343;-32.030;115.880;2023-06-05T03:24:26;100082.91;;;15.42;87.87
72370;BME280;60343;-32.030;115.880;2023-06-05T03:27:06;100079.09;;;15.50;86.95
72370;BME280;60343;-32.030;115.880;2023-06-05T03:29:42;100066.88;;;15.47;88.26
72370;BME280;60343;-32.030;115.880;2023-06-05T03:32:24;100050.50;;;15.49;88.53
72370;BME280;60343;-32.030;115.880;2023-06-05T03:35:01;100025.06;;;15.63;86.92
72370;BME280;60343;-32.030;115.880;2023-06-05T03:37:37;99998.75;;;15.58;88.65
72370;BME280;60343;-32.030;115.880;2023-06-05T03:40:14;100012.16;;;15.65;89.24
72370;BME280;60343;-32.030;115.880;2023-06-05T03:42:50;100013.53;;;15.74;88.51
72370;BME280;60343;-32.030;115.880;2023-06-05T03:45:26;99999.72;;;15.82;86.64
72370;BME280;60343;-32.030;115.880;2023-06-05T03:48:09;99991.06;;;15.92;87.33
72370;BME280;60343;-32.030;115.880;2023-06-05T03:50:46;100001.72;;;15.86;87.34
72370;BME280;60343;-32.030;115.880;2023-06-05T03:53:24;100011.25;;;15.71;86.97
72370;BME280;60343;-32.030;115.880;2023-06-05T03:56:00;100013.59;;;15.67;87.04
72370;BME280;60343;-32.030;115.880;2023-06-05T03:58:37;100005.50;;;15.67;86.35
72370;BME280;60343;-32.030;115.880;2023-06-05T04:01:14;99985.38;;;15.81;82.87
72370;BME280;60343;-32.030;115.880;2023-06-05T04:03:56;99972.28;;;15.67;85.07
72370;BME280;60343;-32.030;115.880;2023-06-05T04:06:33;99972.91;;;15.69;84.29
72370;BME280;60343;-32.030;115.880;2023-06-05T04:09:09;99967.63;;;15.56;86.22
72370;BME280;60343;-32.030;115.880;2023-06-05T04:11:46;99981.97;;;15.50;88.42
72370;BME280;60343;-32.030;115.880;2023-06-05T04:14:23;99990.16;;;15.43;88.51
72370;BME280;60343;-32.030;115.880;2023-06-05T04:16:59;99993.09;;;15.41;89.38
72370;BME280;60343;-32.030;115.880;2023-06-05T04:19:42;100006.41;;;15.36;89.21
72370;BME280;60343;-32.030;115.880;2023-06-05T04:22:18;99990.06;;;15.31;89.29
72370;BME280;60343;-32.030;115.880;2023-06-05T04:24:54;99990.06;;;15.31;89.63
72370;BME280;60343;-32.030;115.880;2023-06-05T04:27:31;99989.38;;;15.18;89.01
72370;BME280;60343;-32.030;115.880;2023-06-05T04:30:08;100005.84;;;15.10;88.93
72370;BME280;60343;-32.030;115.880;2023-06-05T04:32:44;99996.50;;;15.12;88.74
72370;BME280;60343;-32.030;115.880;2023-06-05T04:35:28;99989.75;;;15.03;90.06
72370;BME280;60343;-32.030;115.880;2023-06-05T04:38:05;99995.56;;;15.00;89.22
72370;BME280;60343;-32.030;115.880;2023-06-05T04:40:41;100000.53;;;15.03;87.99
72370;BME280;60343;-32.030;115.880;2023-06-05T04:43:18;99985.59;;;15.00;88.95
72370;BME280;60343;-32.030;115.880;2023-06-05T04:45:54;99978.78;;;14.98;89.95
72370;BME280;60343;-32.030;115.880;2023-06-05T04:48:31;99991.81;;;15.01;88.71
72370;BME280;60343;-32.030;115.880;2023-06-05T04:51:13;99982.91;;;15.00;89.05
72370;BME280;60343;-32.030;115.880;2023-06-05T04:53:50;99970.13;;;15.14;89.17
72370;BME280;60343;-32.030;115.880;2023-06-05T04:56:27;99956.94;;;15.24;87.95
72370;BME280;60343;-32.030;115.880;2023-06-05T04:59:03;99961.19;;;15.38;87.26
72370;BME280;60343;-32.030;115.880;2023-06-05T05:01:39;99968.25;;;15.58;85.69
72370;BME280;60343;-32.030;115.880;2023-06-05T05:04:17;99953.47;;;15.60;80.95
72370;BME280;60343;-32.030;115.880;2023-06-05T05:06:59;99960.50;;;15.43;78.14
72370;BME280;60343;-32.030;115.880;2023-06-05T05:09:42;99964.56;;;15.34;78.54
72370;BME280;60343;-32.030;115.880;2023-06-05T05:12:18;99960.41;;;15.13;79.44
72370;BME280;60343;-32.030;115.880;2023-06-05T05:14:54;99952.69;;;15.17;78.68
72370;BME280;60343;-32.030;115.880;2023-06-05T05:17:31;99932.63;;;15.13;79.57
72370;BME280;60343;-32.030;115.880;2023-06-05T05:20:08;99931.75;;;14.94;79.02
72370;BME280;60343;-32.030;115.880;2023-06-05T05:22:51;99927.66;;;14.91;77.90
72370;BME280;60343;-32.030;115.880;2023-06-05T05:25:28;99964.44;;;14.79;79.24
72370;BME280;60343;-32.030;115.880;2023-06-05T05:28:05;100008.84;;;14.70;79.05
72370;BME280;60343;-32.030;115.880;2023-06-05T05:30:41;100021.72;;;14.30;81.23
72370;BME280;60343;-32.030;115.880;2023-06-05T05:33:18;100047.13;;;14.03;82.17
72370;BME280;60343;-32.030;115.880;2023-06-05T05:35:54;100080.38;;;13.57;83.46
72370;BME280;60343;-32.030;115.880;2023-06-05T05:38:37;100069.19;;;13.08;85.01
72370;BME280;60343;-32.030;115.880;2023-06-05T05:41:13;100043.16;;;12.69;85.79
72370;BME280;60343;-32.030;115.880;2023-06-05T05:43:49;100024.97;;;12.51;84.96
72370;BME280;60343;-32.030;115.880;2023-06-05T05:46:25;100001.81;;;12.50;82.26
72370;BME280;60343;-32.030;115.880;2023-06-05T05:49:02;99991.28;;;12.55;82.28
72370;BME280;60343;-32.030;115.880;2023-06-05T05:51:38;99957.03;;;12.57;78.30
72370;BME280;60343;-32.030;115.880;2023-06-05T05:54:21;99929.97;;;12.52;79.75
72370;BME280;60343;-32.030;115.880;2023-06-05T05:56:57;99931.41;;;12.55;81.20
72370;BME280;60343;-32.030;115.880;2023-06-05T05:59:33;99898.38;;;12.61;82.56
72370;BME280;60343;-32.030;115.880;2023-06-05T06:02:10;99846.28;;;12.68;81.13
72370;BME280;60343;-32.030;115.880;2023-06-05T06:04:47;99866.53;;;12.77;79.24
72370;BME280;60343;-32.030;115.880;2023-06-05T06:07:23;99869.22;;;12.77;80.16
72370;BME280;60343;-32.030;115.880;2023-06-05T06:10:06;99862.59;;;12.86;82.15
72370;BME280;60343;-32.030;115.880;2023-06-05T06:12:43;99861.91;;;12.98;81.91
72370;BME280;60343;-32.030;115.880;2023-06-05T06:15:19;99864.19;;;13.14;80.92
72370;BME280;60343;-32.030;115.880;2023-06-05T06:17:56;99860.78;;;13.38;80.53
72370;BME280;60343;-32.030;115.880;2023-06-05T06:20:32;99864.19;;;13.58;78.33
72370;BME280;60343;-32.030;115.880;2023-06-05T06:23:08;99888.13;;;13.73;78.57
72370;BME280;60343;-32.030;115.880;2023-06-05T06:25:51;99903.09;;;13.94;74.86
72370;BME280;60343;-32.030;115.880;2023-06-05T06:28:27;99903.78;;;14.14;72.32
72370;BME280;60343;-32.030;115.880;2023-06-05T06:31:03;99902.28;;;14.25;75.35
72370;BME280;60343;-32.030;115.880;2023-06-05T06:33:40;99888.09;;;14.42;74.92
72370;BME280;60343;-32.030;115.880;2023-06-05T06:36:16;99880.84;;;14.43;74.51
72370;BME280;60343;-32.030;115.880;2023-06-05T06:38:53;99874.72;;;14.54;73.54
72370;BME280;60343;-32.030;115.880;2023-06-05T06:41:35;99849.03;;;14.58;72.94
72370;BME280;60343;-32.030;115.880;2023-06-05T06:47:24;99835.72;;;14.63;75.99
72370;BME280;60343;-32.030;115.880;2023-06-05T06:50:00;99816.09;;;14.74;73.31
72370;BME280;60343;-32.030;115.880;2023-06-05T06:52:37;99804.06;;;14.77;75.17
72370;BME280;60343;-32.030;115.880;2023-06-05T06:55:13;99794.31;;;14.76;73.49
72370;BME280;60343;-32.030;115.880;2023-06-05T06:57:56;99793.88;;;14.79;72.98
72370;BME280;60343;-32.030;115.880;2023-06-05T07:00:34;99845.28;;;14.77;72.52
72370;BME280;60343;-32.030;115.880;2023-06-05T07:03:11;99891.66;;;14.61;73.94
72370;BME280;60343;-32.030;115.880;2023-06-05T07:05:47;99886.38;;;13.92;77.38
72370;BME280;60343;-32.030;115.880;2023-06-05T07:08:23;99887.84;;;13.43;80.94
72370;BME280;60343;-32.030;115.880;2023-06-05T07:10:59;99852.41;;;13.15;84.17
72370;BME280;60343;-32.030;115.880;2023-06-05T07:13:42;99853.84;;;12.98;86.20
72370;BME280;60343;-32.030;115.880;2023-06-05T07:16:18;99823.16;;;12.80;75.79
72370;BME280;60343;-32.030;115.880;2023-06-05T07:18:55;99842.56;;;12.76;81.75
72370;BME280;60343;-32.030;115.880;2023-06-05T07:21:31;99854.59;;;12.67;80.58
72370;BME280;60343;-32.030;115.880;2023-06-05T07:24:08;99871.53;;;12.61;80.27
72370;BME280;60343;-32.030;115.880;2023-06-05T07:26:45;99877.72;;;12.48;83.03
72370;BME280;60343;-32.030;115.880;2023-06-05T07:29:27;99871.13;;;12.51;83.50
72370;BME280;60343;-32.030;115.880;2023-06-05T07:32:04;99874.81;;;12.69;83.48
72370;BME280;60343;-32.030;115.880;2023-06-05T07:34:41;99877.69;;;12.87;83.83
72370;BME280;60343;-32.030;115.880;2023-06-05T07:37:17;99885.44;;;13.09;83.07
72370;BME280;60343;-32.030;115.880;2023-06-05T07:39:53;99889.66;;;13.56;79.42
72370;BME280;60343;-32.030;115.880;2023-06-05T07:42:30;99887.53;;;13.64;81.55
72370;BME280;60343;-32.030;115.880;2023-06-05T07:45:13;99909.88;;;13.71;81.90
72370;BME280;60343;-32.030;115.880;2023-06-05T07:47:49;99888.88;;;13.87;79.01
72370;BME280;60343;-32.030;115.880;2023-06-05T07:50:25;99892.22;;;13.82;80.35
72370;BME280;60343;-32.030;115.880;2023-06-05T07:53:01;99905.50;;;13.77;79.82
72370;BME280;60343;-32.030;115.880;2023-06-05T07:55:38;99903.44;;;13.72;80.38
72370;BME280;60343;-32.030;115.880;2023-06-05T07:58:14;99905.88;;;13.81;78.17
72370;BME280;60343;-32.030;115.880;2023-06-05T08:00:56;99902.91;;;13.89;77.18
72370;BME280;60343;-32.030;115.880;2023-06-05T08:03:35;99915.72;;;13.93;77.76
72370;BME280;60343;-32.030;115.880;2023-06-05T08:06:12;99912.00;;;13.94;76.24
72370;BME280;60343;-32.030;115.880;2023-06-05T08:08:48;99906.22;;;13.91;74.58
72370;BME280;60343;-32.030;115.880;2023-06-05T08:11:24;99927.09;;;13.95;75.22
72370;BME280;60343;-32.030;115.880;2023-06-05T08:14:01;99933.75;;;13.93;72.51
72370;BME280;60343;-32.030;115.880;2023-06-05T08:16:44;99947.59;;;13.96;72.92
72370;BME280;60343;-32.030;115.880;2023-06-05T08:19:20;99935.97;;;14.02;73.76
72370;BME280;60343;-32.030;115.880;2023-06-05T08:21:56;99928.72;;;14.03;74.10
72370;BME280;60343;-32.030;115.880;2023-06-05T08:24:33;99900.28;;;14.13;73.64
72370;BME280;60343;-32.030;115.880;2023-06-05T08:27:09;99866.22;;;14.01;75.98
72370;BME280;60343;-32.030;115.880;2023-06-05T08:29:45;99872.41;;;14.08;74.02
72370;BME280;60343;-32.030;115.880;2023-06-05T08:32:28;99895.63;;;14.02;75.79
72370;BME280;60343;-32.030;115.880;2023-06-05T08:35:05;99898.78;;;13.93;77.50
72370;BME280;60343;-32.030;115.880;2023-06-05T08:37:42;99900.84;;;13.91;75.21
72370;BME280;60343;-32.030;115.880;2023-06-05T08:40:20;99907.06;;;13.91;75.51
72370;BME280;60343;-32.030;115.880;2023-06-05T08:42:57;99921.34;;;13.92;76.35
72370;BME280;60343;-32.030;115.880;2023-06-05T08:45:35;99931.66;;;13.95;75.28
72370;BME280;60343;-32.030;115.880;2023-06-05T08:48:20;99934.72;;;13.98;75.55
72370;BME280;60343;-32.030;115.880;2023-06-05T08:50:58;99946.31;;;14.05;74.13
72370;BME280;60343;-32.030;115.880;2023-06-05T08:53:38;99952.94;;;14.03;74.88
72370;BME280;60343;-32.030;115.880;2023-06-05T08:56:15;99955.16;;;14.12;73.14
72370;BME280;60343;-32.030;115.880;2023-06-05T08:58:51;99964.66;;;14.15;72.11
72370;BME280;60343;-32.030;115.880;2023-06-05T09:01:30;99969.00;;;14.16;73.27
72370;BME280;60343;-32.030;115.880;2023-06-05T09:04:13;99973.09;;;14.25;69.22
72370;BME280;60343;-32.030;115.880;2023-06-05T09:06:50;99982.63;;;14.28;69.72
72370;BME280;60343;-32.030;115.880;2023-06-05T09:09:26;99996.75;;;14.16;69.73
72370;BME280;60343;-32.030;115.880;2023-06-05T09:12:07;99997.16;;;14.13;68.77
72370;BME280;60343;-32.030;115.880;2023-06-05T09:14:44;99992.59;;;14.21;68.58
72370;BME280;60343;-32.030;115.880;2023-06-05T09:17:28;99995.06;;;14.22;68.47
72370;BME280;60343;-32.030;115.880;2023-06-05T09:20:39;99999.44;;;14.16;68.79
72370;BME280;60343;-32.030;115.880;2023-06-05T09:23:26;99987.41;;;14.19;72.21
72370;BME280;60343;-32.030;115.880;2023-06-05T09:26:02;99995.94;;;14.16;69.76
72370;BME280;60343;-32.030;115.880;2023-06-05T09:28:54;99986.81;;;14.17;69.31
72370;BME280;60343;-32.030;115.880;2023-06-05T09:31:31;100004.75;;;14.36;68.68
72370;BME280;60343;-32.030;115.880;2023-06-05T09:34:26;100007.44;;;14.30;69.23
72370;BME280;60343;-32.030;115.880;2023-06-05T09:37:09;100049.22;;;14.45;68.16
72370;BME280;60343;-32.030;115.880;2023-06-05T09:39:51;100055.16;;;14.16;72.93
72370;BME280;60343;-32.030;115.880;2023-06-05T09:42:34;100068.06;;;13.94;75.47
72370;BME280;60343;-32.030;115.880;2023-06-05T09:45:11;100079.31;;;13.58;76.34
72370;BME280;60343;-32.030;115.880;2023-06-05T09:47:47;100099.41;;;13.23;76.46
72370;BME280;60343;-32.030;115.880;2023-06-05T09:50:24;100110.34;;;12.95;76.30
72370;BME280;60343;-32.030;115.880;2023-06-05T09:53:07;100124.34;;;12.71;77.17
72370;BME280;60343;-32.030;115.880;2023-06-05T09:55:45;100136.69;;;12.52;76.86
72370;BME280;60343;-32.030;115.880;2023-06-05T09:58:22;100159.34;;;12.36;78.54
72370;BME280;60343;-32.030;115.880;2023-06-05T10:00:58;100165.06;;;12.27;79.97
72370;BME280;60343;-32.030;115.880;2023-06-05T10:03:38;100183.94;;;12.12;81.37
72370;BME280;60343;-32.030;115.880;2023-06-05T10:06:17;100183.66;;;11.94;81.56
72370;BME280;60343;-32.030;115.880;2023-06-05T10:09:00;100200.50;;;11.81;82.00
72370;BME280;60343;-32.030;115.880;2023-06-05T10:11:38;100204.59;;;11.56;83.42
72370;BME280;60343;-32.030;115.880;2023-06-05T10:14:15;100232.41;;;11.55;83.22
72370;BME280;60343;-32.030;115.880;2023-06-05T10:16:52;100221.56;;;11.42;84.40
72370;BME280;60343;-32.030;115.880;2023-06-05T10:19:29;100256.28;;;11.29;84.72
72370;BME280;60343;-32.030;115.880;2023-06-05T10:22:06;100291.00;;;11.22;86.03
72370;BME280;60343;-32.030;115.880;2023-06-05T10:24:52;100275.91;;;11.14;86.97
72370;BME280;60343;-32.030;115.880;2023-06-05T10:27:50;100274.47;;;10.97;87.53
72370;BME280;60343;-32.030;115.880;2023-06-05T10:37:04;100330.81;;;10.74;87.45
72370;BME280;60343;-32.030;115.880;2023-06-05T10:39:56;100323.41;;;10.62;87.18
72370;BME280;60343;-32.030;115.880;2023-06-05T10:42:33;100326.56;;;10.51;86.59
72370;BME280;60343;-32.030;115.880;2023-06-05T10:45:11;100326.81;;;10.41;86.78
72370;BME280;60343;-32.030;115.880;2023-06-05T10:47:56;100331.63;;;10.31;85.70
72370;BME280;60343;-32.030;115.880;2023-06-05T10:50:33;100338.88;;;10.22;86.28
72370;BME280;60343;-32.030;115.880;2023-06-05T10:59:29;100324.03;;;9.97;86.42
72370;BME280;60343;-32.030;115.880;2023-06-05T11:02:23;100326.06;;;9.95;86.09
72370;BME280;60343;-32.030;115.880;2023-06-05T11:05:07;100335.16;;;9.86;86.48
72370;BME280;60343;-32.030;115.880;2023-06-05T11:07:43;100336.22;;;9.77;86.89
72370;BME280;60343;-32.030;115.880;2023-06-05T11:10:20;100340.69;;;9.62;87.31
72370;BME280;60343;-32.030;115.880;2023-06-05T11:13:03;100350.78;;;9.52;87.49
72370;BME280;60343;-32.030;115.880;2023-06-05T11:15:49;100348.38;;;9.34;88.29
72370;BME280;60343;-32.030;115.880;2023-06-05T11:18:37;100360.34;;;9.15;89.75
72370;BME280;60343;-32.030;115.880;2023-06-05T11:21:13;100353.53;;;9.04;89.96
72370;BME280;60343;-32.030;115.880;2023-06-05T11:24:15;100369.06;;;9.01;90.87
72370;BME280;60343;-32.030;115.880;2023-06-05T11:26:52;100398.09;;;8.96;91.67
72370;BME280;60343;-32.030;115.880;2023-06-05T11:29:28;100421.63;;;9.00;91.59
72370;BME280;60343;-32.030;115.880;2023-06-05T11:32:19;100466.81;;;9.18;91.46
72370;BME280;60343;-32.030;115.880;2023-06-05T11:34:57;100482.41;;;9.45;90.01
72370;BME280;60343;-32.030;115.880;2023-06-05T11:37:34;100482.84;;;9.57;88.62
72370;BME280;60343;-32.030;115.880;2023-06-05T11:40:11;100469.31;;;9.59;88.78
72370;BME280;60343;-32.030;115.880;2023-06-05T11:43:04;100451.28;;;9.53;89.48
72370;BME280;60343;-32.030;115.880;2023-06-05T11:45:48;100459.06;;;9.39;90.01
72370;BME280;60343;-32.030;115.880;2023-06-05T11:48:31;100463.72;;;9.45;90.22
72370;BME280;60343;-32.030;115.880;2023-06-05T11:51:08;100458.69;;;9.42;89.48
72370;BME280;60343;-32.030;115.880;2023-06-05T11:53:48;100462.94;;;9.29;90.54
72370;BME280;60343;-32.030;115.880;2023-06-05T11:56:26;100452.72;;;9.32;89.95
72370;BME280;60343;-32.030;115.880;2023-06-05T11:59:03;100452.94;;;9.23;90.10
72370;BME280;60343;-32.030;115.880;2023-06-05T12:01:45;100453.44;;;9.18;90.17
72370;BME280;60343;-32.030;115.880;2023-06-05T12:04:28;100459.31;;;9.05;90.60
72370;BME280;60343;-32.030;115.880;2023-06-05T12:07:06;100442.16;;;8.92;90.81
72370;BME280;60343;-32.030;115.880;2023-06-05T12:09:52;100443.53;;;8.88;91.24
72370;BME280;60343;-32.030;115.880;2023-06-05T12:12:29;100450.53;;;8.89;92.17
72370;BME280;60343;-32.030;115.880;2023-06-05T12:15:18;100449.22;;;8.85;92.44
72370;BME280;60343;-32.030;115.880;2023-06-05T12:17:58;100447.03;;;8.80;92.68
72370;BME280;60343;-32.030;115.880;2023-06-05T12:20:46;100443.56;;;8.80;92.91
72370;BME280;60343;-32.030;115.880;2023-06-05T12:23:22;100454.53;;;8.85;92.13
72370;BME280;60343;-32.030;115.880;2023-06-05T12:26:02;100435.22;;;8.75;92.96
72370;BME280;60343;-32.030;115.880;2023-06-05T12:28:40;100454.38;;;8.70;93.70
72370;BME280;60343;-32.030;115.880;2023-06-05T12:31:34;100457.03;;;8.70;94.07
72370;BME280;60343;-32.030;115.880;2023-06-05T12:34:11;100458.22;;;8.68;93.83
72370;BME280;60343;-32.030;115.880;2023-06-05T12:36:54;100452.34;;;8.80;93.91
72370;BME280;60343;-32.030;115.880;2023-06-05T12:39:30;100454.38;;;8.78;93.20
72370;BME280;60343;-32.030;115.880;2023-06-05T12:42:08;100465.25;;;8.69;93.85
72370;BME280;60343;-32.030;115.880;2023-06-05T12:44:44;100459.25;;;8.58;93.82
72370;BME280;60343;-32.030;115.880;2023-06-05T12:47:21;100447.44;;;8.45;94.32
72370;BME280;60343;-32.030;115.880;2023-06-05T12:49:57;100443.94;;;8.44;93.91
72370;BME280;60343;-32.030;115.880;2023-06-05T12:52:40;100440.25;;;8.53;94.42
72370;BME280;60343;-32.030;115.880;2023-06-05T12:55:17;100438.06;;;8.41;94.42
72370;BME280;60343;-32.030;115.880;2023-06-05T12:57:53;100451.06;;;8.28;94.54
72370;BME280;60343;-32.030;115.880;2023-06-05T13:00:30;100484.38;;;8.24;94.78
72370;BME280;60343;-32.030;115.880;2023-06-05T13:03:06;100491.19;;;8.26;95.98
72370;BME280;60343;-32.030;115.880;2023-06-05T13:05:44;100495.75;;;8.34;96.23
72370;BME280;60343;-32.030;115.880;2023-06-05T13:08:26;100493.91;;;8.67;94.84
72370;BME280;60343;-32.030;115.880;2023-06-05T13:11:03;100487.03;;;9.04;94.38
72370;BME280;60343;-32.030;115.880;2023-06-05T13:13:39;100487.66;;;9.23;94.48
72370;BME280;60343;-32.030;115.880;2023-06-05T13:16:16;100500.84;;;9.16;94.64
72370;BME280;60343;-32.030;115.880;2023-06-05T13:18:52;100485.50;;;9.18;95.16
72370;BME280;60343;-32.030;115.880;2023-06-05T13:21:29;100481.47;;;9.30;93.50
72370;BME280;60343;-32.030;115.880;2023-06-05T13:24:11;100491.59;;;9.43;93.15
72370;BME280;60343;-32.030;115.880;2023-06-05T13:26:48;100499.06;;;9.47;93.55
72370;BME280;60343;-32.030;115.880;2023-06-05T13:29:24;100488.13;;;9.34;92.85
72370;BME280;60343;-32.030;115.880;2023-06-05T13:32:01;100485.78;;;9.31;93.35
72370;BME280;60343;-32.030;115.880;2023-06-05T13:34:37;100494.97;;;9.21;93.66
72370;BME280;60343;-32.030;115.880;2023-06-05T13:37:14;100487.13;;;9.27;92.75
72370;BME280;60343;-32.030;115.880;2023-06-05T13:39:56;100492.00;;;9.24;92.20